createdAt,value
2023-04-17T00:00:33.063Z,62.42
2023-04-17T00:03:36.397Z,62.82
2023-04-17T00:06:40.063Z,62.90
2023-04-17T00:09:42.020Z,62.30
2023-04-17T00:12:44.040Z,62.81
2023-04-17T00:15:45.910Z,64.40
2023-04-17T00:18:49.471Z,63.18
2023-04-17T00:21:51.313Z,62.54
2023-04-17T00:24:53.994Z,63.37
2023-04-17T00:27:55.882Z,62.38
2023-04-17T00:30:58.998Z,62.57
2023-04-17T00:34:02.245Z,63.61
2023-04-17T00:37:04.053Z,64.15
2023-04-17T00:40:07.165Z,64.28
2023-04-17T00:43:09.048Z,63.67
2023-04-17T00:46:11.175Z,63.57
2023-04-17T00:49:15.438Z,63.73
2023-04-17T00:52:25.562Z,64.48
2023-04-17T00:55:28.710Z,64.88
2023-04-17T00:58:31.247Z,64.00
2023-04-17T01:01:33.090Z,64.68
2023-04-17T01:04:37.423Z,64.35
2023-04-17T01:07:41.363Z,63.48
2023-04-17T01:10:43.910Z,63.34
2023-04-17T01:13:46.424Z,64.32
2023-04-17T01:16:48.954Z,64.75
2023-04-17T01:19:52.914Z,64.68
2023-04-17T01:22:54.961Z,65.77
2023-04-17T01:25:58.155Z,66.58
2023-04-17T01:29:00.864Z,65.38
2023-04-17T01:32:02.808Z,65.75
2023-04-17T01:35:05.324Z,66.96
2023-04-17T01:38:07.105Z,67.29
2023-04-17T01:41:11.402Z,66.82
2023-04-17T01:44:13.279Z,67.32
2023-04-17T01:47:15.995Z,68.39
2023-04-17T01:50:18.151Z,65.92
2023-04-17T01:53:20.828Z,66.96
2023-04-17T01:56:24.054Z,67.11
2023-04-17T01:59:27.121Z,66.03
2023-04-17T02:02:29.012Z,67.51
2023-04-17T02:05:31.817Z,66.53
2023-04-17T02:08:34.352Z,67.27
2023-04-17T02:11:37.518Z,67.15
2023-04-17T02:14:39.377Z,67.05
2023-04-17T02:17:41.231Z,67.39
2023-04-17T02:20:43.156Z,67.86
2023-04-17T02:23:45.019Z,67.05
2023-04-17T02:26:48.437Z,67.76
2023-04-17T02:29:50.201Z,67.27
2023-04-17T02:32:53.119Z,68.38
2023-04-17T02:35:55.045Z,67.79
2023-04-17T02:38:56.896Z,67.11
2023-04-17T02:42:02.392Z,68.66
2023-04-17T02:45:05.215Z,67.83
2023-04-17T02:48:07.163Z,68.04
2023-04-17T02:51:09.678Z,67.53
2023-04-17T02:54:11.684Z,67.85
2023-04-17T02:57:14.959Z,67.81
2023-04-17T03:00:17.279Z,67.36
2023-04-17T03:03:19.748Z,66.83
2023-04-17T03:06:21.828Z,67.49
2023-04-17T03:09:24.987Z,67.02
2023-04-17T03:12:28.151Z,68.22
2023-04-17T03:15:29.949Z,68.90
2023-04-17T03:18:31.900Z,68.01
2023-04-17T03:21:34.761Z,69.22
2023-04-17T03:24:36.617Z,68.54
2023-04-17T03:27:39.879Z,69.99
2023-04-17T03:30:41.696Z,69.15
2023-04-17T03:33:43.598Z,67.04
2023-04-17T03:36:45.858Z,67.34
2023-04-17T03:39:48.530Z,65.74
2023-04-17T03:42:51.826Z,61.92
2023-04-17T03:45:54.573Z,64.12
2023-04-17T03:48:56.441Z,61.37
2023-04-17T03:51:58.353Z,59.73
2023-04-17T03:55:00.628Z,59.45
2023-04-17T03:58:03.813Z,58.81
2023-04-17T04:01:10.906Z,56.03
2023-04-17T04:04:13.029Z,55.19
2023-04-17T04:07:14.905Z,55.69
2023-04-17T04:10:17.537Z,55.53
2023-04-17T04:13:20.815Z,57.46
2023-04-17T04:16:23.030Z,62.26
2023-04-17T04:19:25.473Z,60.23
2023-04-17T04:22:27.978Z,58.78
2023-04-17T04:25:29.813Z,57.35
2023-04-17T04:28:33.901Z,57.56
2023-04-17T04:34:37.615Z,56.13
2023-04-17T04:37:42.986Z,54.20
2023-04-17T04:40:52.364Z,56.04
2023-04-17T04:43:56.806Z,56.94
2023-04-17T04:46:58.646Z,55.34
2023-04-17T04:50:00.518Z,54.74
2023-04-17T04:53:03.447Z,56.08
2023-04-17T04:56:06.142Z,55.06
2023-04-17T04:59:09.838Z,55.23
2023-04-17T05:02:11.853Z,54.19
2023-04-17T05:05:13.712Z,55.53
2023-04-17T05:08:16.470Z,54.27
2023-04-17T05:11:18.333Z,53.70
2023-04-17T05:14:21.627Z,56.52
2023-04-17T05:17:23.474Z,54.48
2023-04-17T05:20:26.424Z,56.41
2023-04-17T05:23:28.433Z,53.38
2023-04-17T05:26:31.238Z,55.91
2023-04-17T05:29:34.565Z,58.41
2023-04-17T05:32:36.655Z,57.13
2023-04-17T05:35:38.505Z,55.91
2023-04-17T05:38:40.335Z,57.27
2023-04-17T05:41:42.232Z,52.75
2023-04-17T05:44:45.970Z,54.26
2023-04-17T05:47:48.002Z,57.67
2023-04-17T05:50:50.401Z,56.86
2023-04-17T05:53:52.978Z,54.34
2023-04-17T05:56:56.530Z,57.33
2023-04-17T05:59:59.758Z,53.61
2023-04-17T06:03:02.981Z,57.86
2023-04-17T06:06:05.324Z,58.86
2023-04-17T06:09:08.917Z,58.12
2023-04-17T06:12:16.155Z,56.92
2023-04-17T06:15:19.618Z,57.84
2023-04-17T06:18:21.446Z,56.53
2023-04-17T06:21:24.220Z,53.86
2023-04-17T06:24:26.018Z,57.02
2023-04-17T06:27:28.101Z,59.48
2023-04-17T06:30:31.348Z,56.15
2023-04-17T06:33:33.187Z,52.64
2023-04-17T06:36:35.169Z,53.11
2023-04-17T06:39:37.026Z,53.01
2023-04-17T06:42:39.130Z,50.05
2023-04-17T06:45:43.102Z,50.57
2023-04-17T06:48:44.989Z,49.08
2023-04-17T06:51:47.511Z,50.73
2023-04-17T06:54:49.445Z,51.68
2023-04-17T06:57:52.141Z,50.11
2023-04-17T07:00:55.469Z,48.66
2023-04-17T07:03:57.630Z,49.12
2023-04-17T07:07:00.101Z,52.34
2023-04-17T07:10:01.990Z,49.96
2023-04-17T07:13:03.873Z,52.47
2023-04-17T07:16:08.380Z,53.06
2023-04-17T07:19:10.633Z,51.48
2023-04-17T07:22:12.555Z,51.84
2023-04-17T07:25:15.017Z,51.09
2023-04-17T07:28:17.528Z,51.84
2023-04-17T07:31:22.290Z,49.92
2023-04-17T07:34:25.340Z,52.61
2023-04-17T07:37:27.377Z,51.31
2023-04-17T07:40:30.588Z,50.60
2023-04-17T07:43:32.397Z,50.25
2023-04-17T07:46:35.641Z,51.50
2023-04-17T07:49:39.744Z,52.29
2023-04-17T07:52:41.503Z,50.88
2023-04-17T07:55:44.108Z,52.84
2023-04-17T07:58:46.496Z,53.03
2023-04-17T08:01:49.728Z,51.46
2023-04-17T08:04:54.499Z,50.76
2023-04-17T08:07:56.431Z,52.32
2023-04-17T08:10:58.902Z,51.18
2023-04-17T08:14:00.721Z,49.37
2023-04-17T08:17:04.323Z,51.07
2023-04-17T08:20:08.492Z,52.00
2023-04-17T08:23:10.455Z,50.52
2023-04-17T08:26:13.009Z,49.81
2023-04-17T08:29:15.025Z,50.30
2023-04-17T08:32:18.536Z,49.56
2023-04-17T08:35:20.914Z,49.10
2023-04-17T08:38:23.121Z,50.52
2023-04-17T08:41:34.560Z,50.21
2023-04-17T08:44:37.062Z,50.25
2023-04-17T08:47:41.848Z,49.80
2023-04-17T08:50:48.407Z,50.78
2023-04-17T08:53:50.638Z,49.74
2023-04-17T08:56:53.683Z,49.76
2023-04-17T08:59:55.642Z,49.86
2023-04-17T09:03:01.559Z,50.65
2023-04-17T09:06:03.795Z,50.15
2023-04-17T09:09:06.230Z,49.17
2023-04-17T09:12:10.412Z,50.10
2023-04-17T09:15:16.578Z,52.16
2023-04-17T09:18:26.464Z,47.01
2023-04-17T09:21:29.270Z,48.85
2023-04-17T09:24:35.005Z,48.15
2023-04-17T09:27:37.690Z,46.88
2023-04-17T09:30:40.668Z,48.96
2023-04-17T09:33:56.713Z,48.86
2023-04-17T09:36:58.511Z,47.56
2023-04-17T09:40:01.937Z,49.78
2023-04-17T09:43:09.015Z,48.64
2023-04-17T09:46:11.632Z,49.87
2023-04-17T09:49:22.899Z,48.14
2023-04-17T09:52:24.889Z,47.13
2023-04-17T09:55:30.244Z,47.85
2023-04-17T09:58:32.124Z,49.46
2023-04-17T10:01:35.419Z,49.82
2023-04-17T10:04:42.308Z,48.02
2023-04-17T10:07:44.785Z,47.50
2023-04-17T10:10:48.777Z,48.55
2023-04-17T10:14:01.282Z,47.62
2023-04-17T10:17:25.062Z,48.35
2023-04-17T10:20:36.102Z,47.67
2023-04-17T10:23:38.268Z,48.68
2023-04-17T10:26:40.612Z,45.88
2023-04-17T10:29:55.117Z,46.88
2023-04-17T10:33:25.768Z,46.82
2023-04-17T10:36:48.546Z,44.38
2023-04-17T10:39:54.901Z,46.08
2023-04-17T10:43:04.685Z,46.59
2023-04-17T10:46:10.510Z,47.23
2023-04-17T10:49:14.620Z,48.73
2023-04-17T10:52:38.098Z,46.01
2023-04-17T10:55:50.544Z,46.68
2023-04-17T10:58:59.763Z,47.79
2023-04-17T11:02:04.602Z,47.41
2023-04-17T11:05:07.758Z,47.56
2023-04-17T11:08:10.443Z,47.78
2023-04-17T11:11:18.504Z,47.14
2023-04-17T11:14:23.513Z,47.03
2023-04-17T11:17:25.936Z,46.33
2023-04-17T11:20:30.278Z,48.54
2023-04-17T11:23:36.316Z,46.88
2023-04-17T11:26:43.916Z,46.15
2023-04-17T11:29:45.854Z,45.41
2023-04-17T11:32:47.735Z,47.52
2023-04-17T11:35:52.496Z,46.01
2023-04-17T11:38:56.978Z,47.06
2023-04-17T11:42:00.512Z,47.86
2023-04-17T11:45:04.897Z,46.23
2023-04-17T11:48:09.438Z,45.82
2023-04-17T11:51:11.703Z,46.58
2023-04-17T11:54:20.993Z,46.16
2023-04-17T11:57:24.700Z,46.78
2023-04-17T12:00:29.938Z,46.21
2023-04-17T12:03:36.543Z,44.83
2023-04-17T12:06:39.244Z,44.77
2023-04-17T12:09:41.511Z,45.18
2023-04-17T12:12:45.309Z,44.52
2023-04-17T12:15:47.312Z,46.33
2023-04-17T12:18:49.123Z,46.58
2023-04-17T12:21:52.600Z,46.31
2023-04-17T12:24:54.402Z,46.34
2023-04-17T12:27:59.279Z,45.83
2023-04-17T12:31:01.250Z,44.64
2023-04-17T12:34:03.141Z,45.83
2023-04-17T12:37:05.668Z,47.28
2023-04-17T12:40:09.175Z,47.46
2023-04-17T12:43:13.276Z,45.58
2023-04-17T12:46:15.226Z,46.60
2023-04-17T12:49:17.206Z,45.71
2023-04-17T12:52:19.092Z,45.50
2023-04-17T12:55:21.520Z,48.39
2023-04-17T12:58:24.821Z,47.10
2023-04-17T13:01:27.434Z,45.15
2023-04-17T13:04:29.558Z,45.45
2023-04-17T13:07:31.826Z,45.32
2023-04-17T13:10:34.425Z,44.70
2023-04-17T13:13:37.630Z,45.36
2023-04-17T13:16:40.220Z,43.75
2023-04-17T13:19:42.134Z,44.19
2023-04-17T13:22:44.029Z,44.27
2023-04-17T13:25:46.062Z,44.61
2023-04-17T13:28:49.244Z,44.89
2023-04-17T13:31:51.166Z,46.60
2023-04-17T13:34:53.268Z,61.62
2023-04-17T13:38:00.841Z,65.39
2023-04-17T13:41:02.733Z,68.29
2023-04-17T13:44:06.560Z,70.78
2023-04-17T13:47:08.717Z,69.97
2023-04-17T13:50:10.559Z,69.83
2023-04-17T13:53:13.621Z,68.21
2023-04-17T13:56:15.572Z,67.96
2023-04-17T13:59:18.828Z,68.68
2023-04-17T14:02:21.238Z,67.54
2023-04-17T14:05:23.495Z,68.68
2023-04-17T14:08:26.466Z,70.22
2023-04-17T14:11:28.471Z,68.28
2023-04-17T14:14:31.731Z,67.04
2023-04-17T14:17:38.091Z,67.78
2023-04-17T14:20:40.111Z,67.87
2023-04-17T14:23:42.536Z,64.10
2023-04-17T14:26:44.355Z,62.34
2023-04-17T14:29:48.376Z,62.00
2023-04-17T14:32:51.818Z,60.71
2023-04-17T14:35:56.658Z,64.24
2023-04-17T14:38:58.879Z,63.29
2023-04-17T14:42:02.241Z,59.93
2023-04-17T14:45:07.041Z,60.97
2023-04-17T14:48:09.150Z,63.46
2023-04-17T14:51:14.357Z,60.91
2023-04-17T14:54:16.146Z,59.47
2023-04-17T14:57:18.964Z,58.98
2023-04-17T15:00:22.552Z,57.93
2023-04-17T15:03:24.519Z,57.46
2023-04-17T15:06:27.174Z,54.90
2023-04-17T15:09:29.206Z,55.81
2023-04-17T15:12:31.935Z,56.45
2023-04-17T15:15:35.279Z,58.09
2023-04-17T15:18:39.465Z,57.95
2023-04-17T15:21:41.387Z,56.59
2023-04-17T15:24:43.333Z,55.59
2023-04-17T15:27:45.875Z,56.27
2023-04-17T15:30:49.089Z,54.70
2023-04-17T15:33:51.791Z,55.36
2023-04-17T15:36:53.651Z,55.05
2023-04-17T15:39:55.806Z,57.50
2023-04-17T15:42:57.869Z,57.33
2023-04-17T15:46:02.292Z,54.81
2023-04-17T15:49:08.226Z,56.52
2023-04-17T15:52:23.639Z,56.30
2023-04-17T15:55:25.589Z,55.37
2023-04-17T15:58:27.767Z,55.82
2023-04-17T16:01:30.951Z,55.71
2023-04-17T16:04:33.837Z,56.31
2023-04-17T16:07:35.941Z,55.27
2023-04-17T16:10:38.773Z,57.16
2023-04-17T16:13:40.679Z,57.46
2023-04-17T16:16:44.183Z,55.60
2023-04-17T16:19:47.686Z,59.04
2023-04-17T16:22:51.809Z,59.20
2023-04-17T16:25:55.292Z,56.17
2023-04-17T16:28:58.456Z,56.31
2023-04-17T16:32:01.703Z,55.97
2023-04-17T16:35:03.895Z,57.48
2023-04-17T16:38:05.721Z,58.45
2023-04-17T16:41:07.757Z,59.24
2023-04-17T16:44:11.118Z,56.32
2023-04-17T16:47:15.240Z,59.94
2023-04-17T16:50:18.039Z,61.63
2023-04-17T16:53:21.326Z,59.68
2023-04-17T16:56:23.666Z,60.58
2023-04-17T16:59:25.510Z,63.44
2023-04-17T17:02:29.109Z,63.58
2023-04-17T17:05:31.079Z,62.05
2023-04-17T17:08:33.015Z,62.32
2023-04-17T17:11:35.655Z,60.38
2023-04-17T17:14:37.465Z,63.45
2023-04-17T17:17:41.485Z,65.80
2023-04-17T17:20:43.353Z,61.93
2023-04-17T17:23:45.478Z,62.33
2023-04-17T17:26:47.541Z,62.61
2023-04-17T17:29:49.296Z,63.79
2023-04-17T17:32:53.272Z,61.74
2023-04-17T17:35:56.417Z,60.85
2023-04-17T17:39:00.397Z,61.87
2023-04-17T17:42:05.274Z,64.26
2023-04-17T17:45:08.677Z,63.43
2023-04-17T17:48:15.447Z,61.79
2023-04-17T17:51:17.931Z,66.08
2023-04-17T17:54:20.899Z,63.79
2023-04-17T17:57:29.227Z,67.26
2023-04-17T18:00:38.229Z,67.74
2023-04-17T18:03:42.354Z,69.37
2023-04-17T18:06:44.800Z,68.23
2023-04-17T18:09:48.340Z,68.70
2023-04-17T18:12:52.186Z,67.23
2023-04-17T18:15:54.306Z,66.64
2023-04-17T18:18:59.960Z,66.95
2023-04-17T18:22:02.513Z,66.21
2023-04-17T18:25:06.116Z,66.82
2023-04-17T18:28:09.144Z,65.94
2023-04-17T18:31:12.942Z,68.08
2023-04-17T18:34:18.315Z,66.33
2023-04-17T18:37:20.980Z,64.84
2023-04-17T18:40:23.345Z,64.79
2023-04-17T18:43:26.563Z,64.00
2023-04-17T18:46:30.899Z,64.35
2023-04-17T18:49:35.302Z,64.84
2023-04-17T18:52:40.068Z,64.54
2023-04-17T18:55:43.230Z,66.08
2023-04-17T18:58:45.212Z,63.94
2023-04-17T19:01:47.554Z,65.93
2023-04-17T19:04:51.684Z,63.68
2023-04-17T19:07:57.145Z,63.93
2023-04-17T19:10:59.998Z,63.29
2023-04-17T19:14:03.084Z,63.27
2023-04-17T19:17:06.769Z,63.52
2023-04-17T19:20:11.465Z,63.67
2023-04-17T19:23:14.299Z,63.54
2023-04-17T19:26:17.834Z,64.13
2023-04-17T19:29:21.120Z,63.95
2023-04-17T19:32:23.414Z,63.41
2023-04-17T19:35:27.362Z,63.37
2023-04-17T19:38:31.889Z,64.94
2023-04-17T19:41:36.390Z,64.68
2023-04-17T19:44:40.980Z,64.88
2023-04-17T19:47:43.929Z,65.19
2023-04-17T19:50:48.008Z,63.46
2023-04-17T19:53:55.012Z,64.29
2023-04-17T19:56:57.705Z,64.22
2023-04-17T19:59:59.578Z,64.16
2023-04-17T20:03:03.729Z,64.77
2023-04-17T20:06:08.040Z,63.65
2023-04-17T20:09:13.943Z,63.21
2023-04-17T20:12:17.893Z,61.84
2023-04-17T20:15:22.863Z,61.25
2023-04-17T20:18:26.242Z,60.70
2023-04-17T20:21:30.522Z,60.78
2023-04-17T20:24:32.653Z,61.45
2023-04-17T20:27:34.766Z,60.64
2023-04-17T20:30:37.438Z,61.68
2023-04-17T20:33:39.670Z,61.53
2023-04-17T20:36:43.536Z,61.52
2023-04-17T20:39:45.351Z,61.83
2023-04-17T20:42:47.560Z,61.51
2023-04-17T20:45:50.249Z,62.47
2023-04-17T20:48:52.546Z,62.28
2023-04-17T20:51:55.850Z,64.00
2023-04-17T20:54:57.737Z,63.96
2023-04-17T20:57:59.590Z,64.34
2023-04-17T21:01:02.402Z,65.02
2023-04-17T21:04:04.306Z,65.50
2023-04-17T21:07:08.435Z,65.17
2023-04-17T21:10:10.363Z,66.36
2023-04-17T21:13:12.168Z,66.35
2023-04-17T21:16:15.068Z,65.93
2023-04-17T21:19:16.943Z,65.33
2023-04-17T21:22:20.367Z,65.34
2023-04-17T21:25:22.248Z,66.11
2023-04-17T21:28:24.023Z,65.63
2023-04-17T21:31:25.940Z,65.77
2023-04-17T21:34:27.834Z,66.11
2023-04-17T21:37:31.266Z,66.39
2023-04-17T21:40:33.834Z,65.86
2023-04-17T21:43:36.482Z,66.28
2023-04-17T21:46:38.987Z,65.55
2023-04-17T21:49:40.884Z,66.72
2023-04-17T21:52:44.417Z,66.17
2023-04-17T21:55:46.264Z,67.24
2023-04-17T21:58:48.059Z,66.66
2023-04-17T22:01:50.922Z,66.19
2023-04-17T22:04:53.152Z,66.39
2023-04-17T22:07:57.190Z,65.63
2023-04-17T22:10:59.082Z,65.86
2023-04-17T22:14:00.918Z,65.95
2023-04-17T22:17:03.301Z,65.34
2023-04-17T22:20:06.200Z,65.06
2023-04-17T22:23:10.092Z,65.38
2023-04-17T22:26:11.825Z,66.83
2023-04-17T22:29:13.866Z,65.19
2023-04-17T22:32:15.875Z,65.29
2023-04-17T22:35:17.697Z,65.02
2023-04-17T22:38:23.727Z,65.53
2023-04-17T22:41:25.578Z,65.09
2023-04-17T22:44:28.178Z,64.80
2023-04-17T22:47:31.410Z,66.42
2023-04-17T22:50:33.238Z,64.89
2023-04-17T22:53:37.624Z,65.72
2023-04-17T22:56:39.419Z,64.30
2023-04-17T22:59:41.845Z,64.37
2023-04-17T23:02:43.744Z,64.53
2023-04-17T23:05:45.632Z,64.71
2023-04-17T23:08:48.953Z,64.29
2023-04-17T23:11:51.734Z,64.41
2023-04-17T23:14:53.601Z,65.03
2023-04-17T23:17:55.704Z,64.09
2023-04-17T23:20:57.557Z,64.04
2023-04-17T23:24:00.710Z,64.10
2023-04-17T23:27:02.711Z,64.11
2023-04-17T23:30:05.543Z,64.72
2023-04-17T23:33:07.625Z,65.11
2023-04-17T23:36:09.492Z,66.90
2023-04-17T23:39:12.746Z,66.93
2023-04-17T23:42:14.625Z,67.12
2023-04-17T23:45:16.555Z,67.65
2023-04-17T23:48:18.607Z,68.71
2023-04-17T23:51:20.950Z,69.02
2023-04-17T23:54:24.281Z,68.93
2023-04-17T23:57:26.551Z,69.22
